Beecher, Wisconsin
Current Conditions -  °F | °C
As of 1:29 AM on Sunday 23 Nov 2014 (Local Time) from KIMT Reporting Station
Moderate Fog Moderate Fog  
Wind Chill: 29°   Ceiling: 100
Heat Index: 34°   Visibility: 0.25mi
Dew Point: 33°   Wind: 6mph
Humidity: 96%   Direction: 140°SE
Pressure: 29.66"   Gusts: NA
Location:  45.6077°N, 87.9331°W
Report Text: KIMT 230729Z AUTO 14005KT 1/4SM FG VV001 01/01 A2966 RMK AO2 T00110006
Loading
Personal Weather Stations






























Interactive Weather Map New forecast layout! Learn more

10-Day Weather Forecast

Advertisements
Track Severe Weather on mobile